createdAt,value
2019-01-11T06:14:51.687Z,78.59
2019-01-11T06:15:32.202Z,78.5
2019-01-11T06:16:12.735Z,78.88
2019-01-11T06:16:53.260Z,79.36
2019-01-11T06:43:47.213Z,77.49
2019-01-11T06:44:28.754Z,79.28
2019-01-11T06:45:08.269Z,81.86
2019-01-11T06:45:48.787Z,82.07
2019-01-11T06:46:29.319Z,84.45
2019-01-11T06:47:09.833Z,87.35
2019-01-11T06:47:50.363Z,89.96
2019-01-11T06:48:30.888Z,91.71
2019-01-11T06:49:11.409Z,94.13
2019-01-11T06:49:51.934Z,95.36
2019-01-11T06:50:36.434Z,96.45
2019-01-11T06:51:12.979Z,97.39
2019-01-11T06:51:53.502Z,98.48
2019-01-11T06:52:34.027Z,99.62
2019-01-11T06:53:14.617Z,99.99
2019-01-11T06:53:55.145Z,99.99
2019-01-11T06:54:35.662Z,99.99
2019-01-11T06:55:16.183Z,99.99
2019-01-11T06:55:56.701Z,99.99
2019-01-11T06:56:37.214Z,99.99
2019-01-11T06:57:17.733Z,99.99
2019-01-11T06:57:58.256Z,99.99
2019-01-11T06:58:38.781Z,99.99
2019-01-11T06:59:19.301Z,99.99
2019-01-11T06:59:59.822Z,99.99
2019-01-11T07:00:40.348Z,99.99
2019-01-11T07:01:20.871Z,99.99
2019-01-11T07:02:01.401Z,99.99
2019-01-11T07:02:41.929Z,99.99
2019-01-11T07:03:22.449Z,99.99
2019-01-11T07:04:02.974Z,99.99
2019-01-11T07:04:43.495Z,99.99
2019-01-11T07:05:24.024Z,99.99
2019-01-11T07:06:04.543Z,99.99
2019-01-11T07:06:45.069Z,99.99
2019-01-11T07:07:25.586Z,99.99
2019-01-11T07:08:06.114Z,99.99
2019-01-11T07:08:46.631Z,99.99
2019-01-11T07:09:27.170Z,99.99
2019-01-11T07:10:07.682Z,99.99
2019-01-11T07:10:48.214Z,99.99
2019-01-11T07:11:28.742Z,99.99
2019-01-11T07:12:09.258Z,99.99
2019-01-11T07:12:49.779Z,99.99
2019-01-11T07:13:30.297Z,99.99
2019-01-11T07:14:10.826Z,99.99
2019-01-11T07:14:51.348Z,99.99
2019-01-11T07:15:32.073Z,99.99
2019-01-11T07:16:12.386Z,99.99
2019-01-11T07:16:52.904Z,99.99
2019-01-11T07:17:33.644Z,99.99
2019-01-11T07:18:14.264Z,99.99
2019-01-11T07:18:54.780Z,99.99
2019-01-11T07:19:35.341Z,99.99
2019-01-11T07:20:15.966Z,99.99
2019-01-11T07:20:56.490Z,99.99
2019-01-11T07:21:37.006Z,99.99
2019-01-11T07:22:17.531Z,99.99
2019-01-11T07:22:58.051Z,99.99
2019-01-11T07:23:38.574Z,99.99
2019-01-11T07:24:19.097Z,99.99
2019-01-11T07:24:59.617Z,99.99
2019-01-11T07:25:40.142Z,99.99
2019-01-11T07:26:20.658Z,99.99
2019-01-11T07:27:01.173Z,99.99
2019-01-11T07:27:41.704Z,99.99
2019-01-11T07:28:22.223Z,99.99
2019-01-11T07:29:02.746Z,99.99
2019-01-11T07:29:43.268Z,99.99
2019-01-11T07:30:23.789Z,99.99
2019-01-11T07:31:04.310Z,99.99
2019-01-11T07:31:44.827Z,99.99
2019-01-11T07:32:25.346Z,99.99
2019-01-11T07:33:05.871Z,99.99
2019-01-11T07:33:46.395Z,99.99
2019-01-11T07:34:26.929Z,99.99
2019-01-11T07:35:07.448Z,99.99
2019-01-11T07:35:47.973Z,99.99
2019-01-11T07:36:28.495Z,99.99
2019-01-11T07:37:09.014Z,99.99
2019-01-11T07:37:49.538Z,99.99
2019-01-11T07:38:30.063Z,99.99
2019-01-11T07:39:10.584Z,99.99
2019-01-11T07:39:51.098Z,99.99
2019-01-11T07:40:31.629Z,99.99
2019-01-11T07:41:12.149Z,99.99
2019-01-11T07:41:52.668Z,99.99
2019-01-11T07:42:33.194Z,99.99
2019-01-11T07:43:13.709Z,99.99
2019-01-11T07:43:54.230Z,99.99
2019-01-11T07:44:34.749Z,99.99
2019-01-11T07:45:15.270Z,99.99
2019-01-11T07:45:55.794Z,99.99
2019-01-11T07:46:36.320Z,99.99
2019-01-11T07:47:16.850Z,99.99
2019-01-11T07:47:57.375Z,99.99
2019-01-11T07:48:37.901Z,99.99
2019-01-11T07:49:23.100Z,99.99
2019-01-11T07:49:58.936Z,99.99
2019-01-11T07:50:39.460Z,99.99
2019-01-11T07:51:19.978Z,99.99
2019-01-11T07:52:00.503Z,99.99
2019-01-11T07:52:41.034Z,99.99
2019-01-11T07:53:21.551Z,99.99
2019-01-11T07:54:02.071Z,99.99
2019-01-11T07:54:42.595Z,99.99
2019-01-11T07:55:23.111Z,99.99
2019-01-11T07:56:03.633Z,99.99
2019-01-11T07:56:44.158Z,99.99
2019-01-11T07:57:24.680Z,99.99
2019-01-11T07:58:05.204Z,99.99
2019-01-11T07:58:45.727Z,99.99
2019-01-11T07:59:26.264Z,99.99
2019-01-11T08:00:06.784Z,99.99
2019-01-11T08:00:47.305Z,99.99
2019-01-11T08:01:27.832Z,98.35
2019-01-11T08:02:08.362Z,96.45
2019-01-11T08:02:48.882Z,95.26
2019-01-11T08:03:29.408Z,93.18
2019-01-11T08:04:09.927Z,91
2019-01-11T08:04:50.452Z,89.81
2019-01-11T08:05:30.976Z,90
2019-01-11T08:06:11.500Z,90.9
2019-01-11T08:06:52.032Z,89.58
2019-01-11T08:07:32.550Z,89.29
2019-01-11T08:08:13.080Z,88.95
2019-01-11T08:08:53.817Z,88.67
2019-01-11T08:09:34.132Z,87.05
2019-01-11T08:10:14.650Z,86.82
2019-01-11T08:10:55.178Z,86.34
2019-01-11T08:11:35.695Z,86.34
2019-01-11T08:12:16.217Z,85.01
2019-01-11T08:12:56.747Z,84.16
2019-01-11T08:13:37.270Z,83.01
2019-01-11T08:14:17.784Z,82.26
2019-01-11T08:14:58.301Z,81.78
2019-01-11T08:15:38.821Z,81.82
2019-01-11T08:16:19.333Z,82.2
2019-01-11T08:16:59.854Z,80.49
2019-01-11T08:17:40.382Z,78.3
2019-01-11T08:18:20.914Z,78.4
2019-01-11T08:19:01.455Z,78.5
2019-01-11T08:19:41.985Z,79.16
2019-01-11T08:20:22.511Z,80.96
2019-01-11T08:21:03.041Z,80.96
2019-01-11T08:21:43.554Z,80.05
2019-01-11T08:22:24.078Z,78.25
2019-01-11T08:23:04.597Z,76.92
2019-01-11T08:23:45.122Z,76.82
2019-01-11T08:24:25.642Z,78.06
2019-01-11T08:25:06.164Z,77.97
2019-01-11T08:25:46.685Z,77.01
2019-01-11T08:26:27.209Z,75.55
2019-01-11T08:27:07.724Z,75.07
2019-01-11T08:27:48.247Z,74.66
2019-01-11T08:28:28.772Z,74.33
2019-01-11T08:29:09.295Z,75.24
2019-01-11T08:29:49.825Z,76.34
2019-01-11T08:30:30.349Z,78.62
2019-01-11T08:31:10.869Z,79.76
2019-01-11T08:31:51.392Z,80.95
2019-01-11T08:32:31.913Z,81.62
2019-01-11T08:33:18.328Z,82.09
2019-01-11T08:33:52.963Z,81.57
2019-01-11T08:34:33.485Z,81.67
2019-01-11T08:35:14.008Z,82.05
2019-01-11T08:35:54.533Z,83.28
2019-01-11T08:36:35.054Z,83.9
2019-01-11T08:37:15.581Z,85.51
2019-01-11T08:37:56.104Z,85.32
2019-01-11T08:38:36.641Z,85.7
2019-01-11T08:39:17.158Z,85.8
2019-01-11T08:39:57.681Z,86.55
2019-01-11T08:40:38.202Z,86.46
2019-01-11T08:41:18.734Z,87.02
2019-01-11T08:41:59.253Z,87.59
2019-01-11T08:42:39.779Z,88.59
2019-01-11T08:43:20.304Z,89.54
2019-01-11T08:44:00.826Z,89.16
2019-01-11T08:44:41.343Z,89.16
2019-01-11T08:45:21.869Z,88.87
2019-01-11T08:46:02.392Z,88.68
2019-01-11T08:46:42.911Z,88.68
2019-01-11T08:47:23.436Z,89.35
2019-01-11T08:48:03.955Z,89.73
2019-01-11T08:48:44.482Z,90.2
2019-01-11T08:49:25.005Z,89.82
2019-01-11T08:50:05.526Z,89.92
2019-01-11T08:50:46.055Z,89.92
2019-01-11T08:51:26.577Z,89.82
2019-01-11T08:52:07.105Z,89.92
2019-01-11T08:52:47.625Z,90.3
2019-01-11T08:53:28.143Z,89.73
2019-01-11T08:54:08.664Z,89.92
2019-01-11T08:54:49.188Z,90.2
2019-01-11T08:55:29.713Z,89.63
2019-01-11T08:56:10.234Z,89.35
2019-01-11T08:56:50.756Z,89.35
2019-01-11T08:57:31.269Z,88.68
2019-01-11T08:58:11.797Z,88.68
2019-01-11T08:58:52.323Z,88.87
2019-01-11T08:59:32.857Z,89.06
2019-01-11T09:00:13.374Z,88.97
2019-01-11T09:00:53.889Z,89.06
2019-01-11T09:01:34.417Z,89.25
2019-01-11T09:02:14.929Z,89.82
2019-01-11T09:02:55.450Z,90.77
2019-01-11T09:03:35.983Z,90.77
2019-01-11T09:04:16.519Z,90.39
2019-01-11T09:04:57.037Z,90.2
2019-01-11T09:05:37.564Z,90.39
2019-01-11T09:06:18.082Z,89.73
2019-01-11T09:06:58.598Z,89.21
2019-01-11T09:07:39.120Z,89.21
2019-01-11T09:08:19.639Z,89.78
2019-01-11T09:09:00.158Z,89.97
2019-01-11T09:09:40.687Z,90.53
2019-01-11T09:10:22.872Z,90.39
2019-01-11T09:11:01.734Z,89.82
2019-01-11T09:11:42.258Z,90.2
2019-01-11T09:12:22.785Z,90.3
2019-01-11T09:13:03.297Z,90.2
2019-01-11T09:13:43.821Z,90.48
2019-01-11T09:14:24.340Z,90.2
2019-01-11T09:15:04.869Z,90.2
2019-01-11T09:15:45.399Z,89.54
2019-01-11T09:16:25.916Z,89.82
2019-01-11T09:17:06.439Z,89.63
2019-01-11T09:17:46.971Z,90.2
2019-01-11T09:18:27.486Z,89.54
2019-01-11T09:19:08.005Z,89.82
2019-01-11T09:19:48.525Z,90.2
2019-01-11T09:20:29.047Z,90.86
2019-01-11T09:21:11.302Z,90.96
2019-01-11T09:21:50.093Z,90.86
2019-01-11T09:22:30.605Z,90.58
2019-01-11T09:23:11.135Z,90.58
2019-01-11T09:23:51.656Z,90.3
2019-01-11T09:24:32.176Z,90.67
2019-01-11T09:25:12.698Z,90.67
2019-01-11T09:25:53.224Z,89.92
2019-01-11T09:26:33.746Z,89.54
2019-01-11T09:27:14.267Z,89.35
2019-01-11T09:27:54.780Z,89.25
2019-01-11T09:28:35.310Z,89.06
2019-01-11T09:29:15.835Z,89.35
2019-01-11T09:29:56.360Z,89.63
2019-01-11T09:30:36.887Z,89.63
2019-01-11T09:31:17.416Z,90.44
2019-01-11T09:31:57.941Z,90.53
2019-01-11T09:32:38.472Z,90.53
2019-01-11T09:33:20.538Z,89.87
2019-01-11T09:33:59.517Z,89.96
2019-01-11T09:34:40.035Z,89.11
2019-01-11T09:35:20.557Z,89.3
2019-01-11T09:36:01.087Z,89.2
2019-01-11T09:36:41.610Z,89.39
2019-01-11T09:37:22.133Z,88.26
2019-01-11T09:38:02.659Z,87.78
2019-01-11T09:38:43.185Z,88.26
2019-01-11T09:39:23.716Z,88.82
2019-01-11T09:40:04.238Z,89.11
2019-01-11T09:40:44.760Z,89.87
2019-01-11T09:41:25.318Z,89.2
2019-01-11T09:42:06.206Z,89.11
2019-01-11T09:42:47.433Z,89.2
2019-01-11T09:43:28.631Z,89.01
2019-01-11T09:44:09.158Z,88.92
2019-01-11T09:44:49.686Z,89.01
2019-01-11T09:45:30.217Z,89.39
2019-01-11T09:46:10.738Z,89.11
2019-01-11T09:46:51.259Z,88.26
2019-01-11T09:47:31.787Z,87.5
2019-01-11T09:48:12.310Z,87.88
2019-01-11T09:48:52.834Z,88.21
2019-01-11T09:49:33.364Z,88.78
2019-01-11T09:50:13.887Z,88.82
2019-01-11T09:50:54.395Z,89.87
2019-01-11T09:51:34.916Z,90.34
2019-01-11T09:52:15.448Z,89.68
2019-01-11T09:52:55.973Z,90.06
2019-01-11T09:53:36.496Z,89.77
2019-01-11T09:54:17.017Z,89.3
2019-01-11T09:54:57.542Z,89.3
2019-01-11T09:55:38.074Z,89.01
2019-01-11T09:56:18.601Z,88.73
2019-01-11T09:56:59.250Z,88.82
2019-01-11T09:57:39.772Z,89.11
2019-01-11T09:58:20.287Z,89.39
2019-01-11T09:59:00.831Z,89.39
2019-01-11T09:59:41.360Z,89.11
2019-01-11T10:00:21.883Z,88.92
2019-01-11T10:01:02.437Z,88.82
2019-01-11T10:01:42.970Z,88.35
2019-01-11T10:02:23.525Z,88.82
2019-01-11T10:03:04.047Z,88.92
2019-01-11T10:03:44.574Z,88.82
2019-01-11T10:04:25.104Z,88.45
2019-01-11T10:05:05.631Z,88.45
2019-01-11T10:05:46.197Z,88.17
2019-01-11T10:06:26.851Z,87.21
2019-01-11T10:07:07.517Z,87.5
2019-01-11T10:07:48.037Z,87.69
2019-01-11T10:08:28.557Z,88.35
2019-01-11T10:09:09.084Z,88.35
2019-01-11T10:09:49.604Z,88.45
2019-01-11T10:10:30.123Z,89.01
2019-01-11T10:11:10.644Z,88.17
2019-01-11T10:11:51.179Z,88.26
2019-01-11T10:12:31.707Z,88.17
2019-01-11T10:13:12.229Z,87.69
2019-01-11T10:13:52.785Z,88.07
2019-01-11T10:14:33.311Z,88.45
2019-01-11T10:15:13.830Z,88.17
2019-01-11T10:15:54.360Z,87.98
2019-01-11T10:16:34.882Z,87.69
2019-01-11T10:17:15.401Z,87.88
2019-01-11T10:17:55.924Z,87.78
2019-01-11T10:18:36.507Z,87.78
2019-01-11T10:19:17.027Z,88.26
2019-01-11T10:19:57.553Z,87.88
2019-01-11T10:20:38.079Z,88.17
2019-01-11T10:21:22.081Z,88.35
2019-01-11T10:21:59.132Z,88.17
2019-01-11T10:22:39.658Z,87.5
2019-01-11T10:23:20.175Z,87.31
2019-01-11T10:24:00.701Z,87.02
2019-01-11T10:24:41.218Z,86.93
2019-01-11T10:25:21.734Z,87.4
2019-01-11T10:26:02.260Z,87.98
2019-01-11T10:26:42.788Z,87.88
2019-01-11T10:27:23.316Z,87.98
2019-01-11T10:28:03.839Z,87.5
2019-01-11T10:28:44.362Z,86.46
2019-01-11T10:29:25.007Z,85.8
2019-01-11T10:30:05.618Z,86.46
2019-01-11T10:30:46.147Z,86.65
2019-01-11T10:31:26.686Z,86.55
2019-01-11T10:32:07.237Z,87.02
2019-01-11T10:32:47.762Z,87.59
2019-01-11T10:33:28.295Z,87.98
2019-01-11T10:34:08.818Z,87.31
2019-01-11T10:34:49.348Z,87.12
2019-01-11T10:35:29.870Z,87.12
2019-01-11T10:36:10.399Z,87.5
2019-01-11T10:36:50.934Z,87.4
2019-01-11T10:37:31.479Z,87.12
2019-01-11T10:38:11.995Z,86.83
2019-01-11T10:38:52.524Z,86.65
2019-01-11T10:39:33.045Z,86.74
2019-01-11T10:40:13.645Z,85.89
2019-01-11T10:40:54.170Z,86.08
2019-01-11T10:41:34.701Z,85.8
2019-01-11T10:42:15.219Z,85.8
2019-01-11T10:42:55.747Z,85.99
2019-01-11T10:43:36.267Z,85.89
2019-01-11T10:44:16.802Z,86.93
2019-01-11T10:44:57.307Z,86.46
2019-01-11T10:45:37.831Z,86.36
2019-01-11T10:46:18.346Z,86.83
2019-01-11T10:46:58.870Z,86.55
2019-01-11T10:47:39.417Z,86.18
2019-01-11T10:48:19.939Z,85.89
2019-01-11T10:49:00.464Z,86.36
2019-01-11T10:49:41.091Z,86.83
2019-01-11T10:50:21.675Z,87.83
2019-01-11T10:51:02.183Z,88.02
2019-01-11T10:51:42.698Z,88.11
2019-01-11T10:52:23.218Z,88.49
2019-01-11T10:53:03.739Z,88.3
2019-01-11T10:53:44.279Z,89.06
2019-01-11T10:54:24.818Z,88.4
2019-01-11T10:55:05.339Z,88.49
2019-01-11T10:55:45.861Z,88.3
2019-01-11T10:56:26.382Z,88.49
2019-01-11T10:57:06.931Z,89.15
2019-01-11T10:57:47.434Z,88.11
2019-01-11T10:58:27.959Z,87.54
2019-01-11T10:59:08.476Z,86.41
2019-01-11T10:59:48.990Z,85.93
2019-01-11T11:00:29.513Z,85.17
2019-01-11T11:01:10.039Z,84.8
2019-01-11T11:01:50.562Z,85.51
2019-01-11T11:02:31.105Z,85.89
2019-01-11T11:03:11.634Z,86.36
2019-01-11T11:03:52.162Z,86.65
2019-01-11T11:04:32.681Z,86.27
2019-01-11T11:05:13.209Z,86.55
2019-01-11T11:05:53.739Z,86.83
2019-01-11T11:06:34.263Z,87.5
2019-01-11T11:07:14.788Z,88.17
2019-01-11T11:07:55.321Z,88.17
2019-01-11T11:08:35.845Z,87.31
2019-01-11T11:09:16.368Z,86.65
2019-01-11T11:09:56.892Z,86.36
2019-01-11T11:10:37.414Z,86.08
2019-01-11T11:11:17.948Z,86.18
2019-01-11T11:11:58.558Z,86.55
2019-01-11T11:12:39.109Z,85.99
2019-01-11T11:13:19.619Z,86.46
2019-01-11T11:14:00.141Z,86.36
2019-01-11T11:14:40.662Z,87.12
2019-01-11T11:15:21.178Z,88.35
2019-01-11T11:16:01.704Z,88.54
2019-01-11T11:16:42.259Z,89.11
2019-01-11T11:17:22.805Z,88.82
2019-01-11T11:18:03.361Z,88.4
2019-01-11T11:18:43.928Z,87.54
2019-01-11T11:19:24.466Z,86.12
2019-01-11T11:20:05.079Z,85.61
2019-01-11T11:20:45.728Z,85.23
2019-01-11T11:21:26.271Z,86.65
2019-01-11T11:22:06.826Z,86.65
2019-01-11T11:22:47.366Z,86.98
2019-01-11T11:23:28.489Z,86.65
2019-01-11T11:24:09.226Z,85.93
2019-01-11T11:24:49.757Z,86.41
2019-01-11T11:25:30.283Z,86.22
2019-01-11T11:26:10.811Z,85.65
2019-01-11T11:26:51.331Z,84.19
2019-01-11T11:27:31.858Z,84.19
2019-01-11T11:28:12.384Z,84.28
2019-01-11T11:28:52.908Z,84.85
2019-01-11T11:29:33.431Z,85.61
2019-01-11T11:30:13.961Z,85.7
2019-01-11T11:30:54.822Z,86.36
2019-01-11T11:31:35.007Z,86.65
2019-01-11T11:32:15.524Z,86.83
2019-01-11T11:32:56.050Z,86.27
2019-01-11T11:33:36.582Z,86.65
2019-01-11T11:34:17.101Z,86.55
2019-01-11T11:34:57.625Z,86.74
2019-01-11T11:35:38.150Z,87.02
2019-01-11T11:36:18.675Z,87.4
2019-01-11T11:36:59.203Z,86.93
2019-01-11T11:37:39.725Z,86.74
2019-01-11T11:38:20.250Z,86.36
2019-01-11T11:39:00.775Z,87.02
2019-01-11T11:39:41.296Z,86.93
2019-01-11T11:40:21.825Z,87.02
2019-01-11T11:41:02.353Z,86.74
2019-01-11T11:41:42.854Z,86.79
2019-01-11T11:42:23.380Z,86.98
2019-01-11T11:43:03.898Z,87.59
2019-01-11T11:43:44.420Z,87.88
2019-01-11T11:44:24.943Z,87.69
2019-01-11T11:45:05.464Z,87.31
2019-01-11T11:45:45.988Z,87.12
2019-01-11T11:46:26.512Z,86.36
2019-01-11T11:47:07.033Z,86.55
2019-01-11T11:47:47.555Z,86.74
2019-01-11T11:48:28.086Z,87.12
2019-01-11T11:49:08.712Z,86.46
2019-01-11T11:49:49.233Z,86.65
2019-01-11T11:50:29.757Z,86.74
2019-01-11T11:51:10.272Z,87.02
2019-01-11T11:51:50.798Z,87.12
2019-01-11T11:52:31.349Z,87.21
2019-01-11T11:53:11.886Z,87.02
2019-01-11T11:53:52.450Z,87.21
2019-01-11T11:54:32.976Z,87.98
2019-01-11T11:55:13.501Z,88.07
2019-01-11T11:55:54.021Z,87.88
2019-01-11T11:56:34.549Z,87.4
2019-01-11T11:57:15.076Z,87.02
2019-01-11T11:57:55.596Z,87.31
2019-01-11T11:58:36.115Z,87.21
2019-01-11T11:59:23.201Z,87.21
2019-01-11T12:00:03.722Z,87.21
2019-01-11T12:00:44.245Z,86.74
2019-01-11T12:01:24.777Z,86.93
2019-01-11T12:02:05.307Z,86.83
2019-01-11T12:02:45.830Z,87.69
2019-01-11T12:03:26.389Z,87.98
2019-01-11T12:04:06.881Z,88.45
2019-01-11T12:04:47.401Z,88.17
2019-01-11T12:05:27.922Z,88.45
2019-01-11T12:06:08.446Z,87.78
2019-01-11T12:06:48.985Z,87.31
2019-01-11T12:07:29.500Z,86.46
2019-01-11T12:08:10.030Z,86.27
2019-01-11T12:08:50.552Z,86.36
2019-01-11T12:09:31.075Z,86.46
2019-01-11T12:10:11.604Z,86.83
2019-01-11T12:10:52.131Z,87.88
2019-01-11T12:11:32.654Z,87.98
2019-01-11T12:12:13.199Z,87.59
2019-01-11T12:12:53.717Z,87.21
2019-01-11T12:13:34.677Z,87.31
2019-01-11T12:14:14.776Z,87.5
2019-01-11T12:14:55.304Z,87.21
2019-01-11T12:15:35.834Z,86.65
2019-01-11T12:16:16.355Z,87.45
2019-01-11T12:16:56.880Z,87.02
2019-01-11T12:17:37.409Z,86.83
2019-01-11T12:18:17.970Z,87.07
2019-01-11T12:18:58.490Z,87.31
2019-01-11T12:19:39.015Z,87.59
2019-01-11T12:20:19.540Z,87.73
2019-01-11T12:21:00.068Z,88.35
2019-01-11T12:21:40.588Z,88.4
2019-01-11T12:22:21.112Z,88.4
2019-01-11T12:23:01.649Z,88.49
2019-01-11T12:23:42.187Z,87.54
2019-01-11T12:24:22.711Z,87.12
2019-01-11T12:25:03.237Z,86.83
2019-01-11T12:25:43.758Z,87.02
2019-01-11T12:26:24.286Z,87.31
2019-01-11T12:27:04.812Z,87.98
2019-01-11T12:27:45.338Z,87.69
2019-01-11T12:28:25.856Z,87.59
2019-01-11T12:29:06.380Z,87.4
2019-01-11T12:29:46.906Z,88.4
2019-01-11T12:30:27.433Z,88.68
2019-01-11T12:31:07.961Z,88.78
2019-01-11T12:31:48.484Z,89.35
2019-01-11T12:32:29.010Z,88.97
2019-01-11T12:33:09.537Z,88.97
2019-01-11T12:33:50.055Z,89.35
2019-01-11T12:34:30.580Z,89.54
2019-01-11T12:35:11.106Z,89.92
2019-01-11T12:35:51.629Z,90.3
2019-01-11T12:36:32.162Z,90.2
2019-01-11T12:37:12.687Z,90.2
2019-01-11T12:37:53.208Z,89.63
2019-01-11T12:38:33.731Z,89.73
2019-01-11T12:39:14.259Z,89.82
2019-01-11T12:39:54.788Z,90.48
2019-01-11T12:40:35.312Z,90.96
2019-01-11T12:41:15.836Z,90.96
2019-01-11T12:41:56.365Z,91.81
2019-01-11T12:42:36.889Z,92
2019-01-11T12:43:17.413Z,92
2019-01-11T12:43:57.951Z,91.91
2019-01-11T12:44:38.464Z,91.91
2019-01-11T12:45:19.001Z,92.1
2019-01-11T12:45:59.521Z,91.53
2019-01-11T12:46:40.051Z,91.05
2019-01-11T12:47:20.577Z,90.67
2019-01-11T12:48:01.091Z,91.1
2019-01-11T12:48:41.615Z,91.34
2019-01-11T12:49:22.153Z,92
2019-01-11T12:50:02.682Z,91.91
2019-01-11T12:50:43.202Z,91.81
2019-01-11T12:51:23.729Z,92.38
2019-01-11T12:52:04.252Z,92.47
2019-01-11T12:52:44.772Z,92.47
2019-01-11T12:53:25.296Z,92.57
2019-01-11T12:54:05.827Z,92.47
2019-01-11T12:54:46.362Z,92.47
2019-01-11T12:55:26.884Z,92.76
2019-01-11T12:56:07.409Z,93.04
2019-01-11T12:56:49.142Z,93.13
2019-01-11T12:57:29.674Z,93.23
2019-01-11T12:58:10.215Z,93.23
2019-01-11T12:58:50.748Z,93.23
2019-01-11T12:59:31.274Z,93.23
2019-01-11T13:00:11.797Z,92.94
2019-01-11T13:00:52.317Z,92.76
2019-01-11T13:01:32.848Z,92.66
2019-01-11T13:02:13.363Z,92.57
2019-01-11T13:02:53.884Z,93.42
2019-01-11T13:03:34.420Z,92.94
2019-01-11T13:04:14.951Z,92.85
2019-01-11T13:04:55.468Z,93.04
2019-01-11T13:05:35.997Z,93.04
2019-01-11T13:06:16.531Z,92.85
2019-01-11T13:06:57.055Z,92.94
2019-01-11T13:07:37.593Z,92.57
2019-01-11T13:08:18.120Z,92.38
2019-01-11T13:08:58.649Z,92.85
2019-01-11T13:09:39.174Z,91.91
2019-01-11T13:10:19.707Z,92
2019-01-11T13:11:00.252Z,91.81
2019-01-11T13:11:40.775Z,91.72
2019-01-11T13:12:21.307Z,91.72
2019-01-11T13:13:01.831Z,91.81
2019-01-11T13:13:42.375Z,91.53
2019-01-11T13:14:22.900Z,91.53
2019-01-11T13:15:03.433Z,92.1
2019-01-11T13:15:43.967Z,92
2019-01-11T13:16:24.495Z,91.81
2019-01-11T13:17:05.016Z,91.34
2019-01-11T13:17:45.548Z,91.72
2019-01-11T13:18:26.076Z,91.43
2019-01-11T13:19:06.605Z,91.81
2019-01-11T13:19:47.125Z,92.1
2019-01-11T13:20:27.653Z,92.66
2019-01-11T13:21:08.177Z,92.38
2019-01-11T13:21:48.714Z,92.38
2019-01-11T13:22:29.254Z,92.38
2019-01-11T13:23:09.777Z,92.47
2019-01-11T13:23:50.304Z,92.76
2019-01-11T13:24:30.833Z,93.04
2019-01-11T13:25:11.358Z,93.42
2019-01-11T13:25:51.895Z,93.04
2019-01-11T13:26:32.423Z,92.9
2019-01-11T13:27:12.949Z,93.23
2019-01-11T13:27:53.485Z,93.42
2019-01-11T13:28:34.025Z,93.89
2019-01-11T13:29:14.566Z,94.08
2019-01-11T13:29:55.118Z,94.56
2019-01-11T13:30:35.641Z,93.99
2019-01-11T13:31:16.164Z,93.32
2019-01-11T13:31:56.681Z,92.94
2019-01-11T13:32:37.213Z,93.04
2019-01-11T13:33:17.759Z,93.04
2019-01-11T13:33:58.286Z,93.28
2019-01-11T13:34:38.810Z,93.28
2019-01-11T13:35:19.344Z,94.42
2019-01-11T13:35:59.877Z,94.04
2019-01-11T13:36:40.413Z,94.42
2019-01-11T13:37:20.941Z,94.32
2019-01-11T13:38:01.479Z,94.23
2019-01-11T13:38:42.011Z,94.51
2019-01-11T13:39:22.544Z,94.42
2019-01-11T13:40:03.084Z,94.42
2019-01-11T13:40:43.653Z,94.98
2019-01-11T13:41:24.211Z,94.79
2019-01-11T13:42:04.742Z,95.26
2019-01-11T13:42:45.299Z,95.74
2019-01-11T13:43:25.855Z,95.93
2019-01-11T13:44:06.416Z,95.64
2019-01-11T13:44:46.998Z,96.69
2019-01-11T13:45:27.551Z,96.88
2019-01-11T13:46:08.127Z,96.59
2019-01-11T13:46:48.667Z,96.31
2019-01-11T13:47:29.250Z,96.4
2019-01-11T13:48:09.820Z,95.93
2019-01-11T13:48:50.352Z,96.4
2019-01-11T13:49:30.891Z,96.5
2019-01-11T13:50:11.419Z,96.97
2019-01-11T13:50:51.974Z,96.78
2019-01-11T13:51:32.514Z,96.88
2019-01-11T13:52:13.052Z,96.59
2019-01-11T13:52:53.583Z,96.69
2019-01-11T13:53:34.115Z,97.34
2019-01-11T13:54:14.649Z,96.4
2019-01-11T13:54:55.192Z,96.4
2019-01-11T13:55:35.740Z,96.69
2019-01-11T13:56:16.281Z,96.69
2019-01-11T13:56:56.810Z,96.69
2019-01-11T13:57:37.356Z,96.88
2019-01-11T13:58:17.910Z,96.78
2019-01-11T13:58:58.426Z,96.59
2019-01-11T13:59:41.559Z,97.25
2019-01-11T14:00:19.497Z,96.88
2019-01-11T14:01:00.034Z,97.44
2019-01-11T14:01:40.572Z,97.53
2019-01-11T14:02:21.115Z,96.97
2019-01-11T14:03:01.680Z,96.31
2019-01-11T14:03:42.200Z,96.54
2019-01-11T14:04:22.751Z,96.5
2019-01-11T14:05:03.282Z,96.59
2019-01-11T14:05:43.822Z,97.25
2019-01-11T14:06:24.356Z,97.39
2019-01-11T14:07:04.883Z,97.34
2019-01-11T14:07:45.406Z,97.58
2019-01-11T14:08:25.989Z,97.82
2019-01-11T14:09:06.500Z,98.1
2019-01-11T14:09:47.053Z,98.01
2019-01-11T14:10:27.578Z,97.53
2019-01-11T14:11:08.122Z,97.91
2019-01-11T14:11:48.650Z,97.72
2019-01-11T14:12:29.183Z,97.67
2019-01-11T14:13:09.723Z,97.58
2019-01-11T14:13:50.249Z,97.39
2019-01-11T14:14:30.771Z,97.49
2019-01-11T14:15:11.316Z,97.67
2019-01-11T14:15:51.884Z,97.96
2019-01-11T14:19:05.903Z,98.43
2019-01-11T14:19:46.442Z,98.62
2019-01-11T14:20:26.960Z,98.86
2019-01-11T14:21:07.491Z,98.62
2019-01-11T14:21:48.194Z,98.48
2019-01-11T14:22:28.746Z,98.39
2019-01-11T14:23:09.293Z,98.48
2019-01-11T14:23:49.818Z,98.58
2019-01-11T14:24:30.341Z,98.52
2019-01-11T14:25:10.889Z,98.43
2019-01-11T14:25:51.451Z,99
2019-01-11T14:26:31.994Z,99
2019-01-11T14:27:12.519Z,97.96
2019-01-11T14:27:53.039Z,98.14
2019-01-11T14:28:33.565Z,98.81
2019-01-11T14:29:14.097Z,98.52
2019-01-11T14:29:54.633Z,98.14
2019-01-11T14:30:35.183Z,97.96
2019-01-11T14:31:15.719Z,97.77
2019-01-11T14:31:56.249Z,97.77
2019-01-11T14:32:36.783Z,97.67
2019-01-11T14:33:17.302Z,98.14
2019-01-11T14:33:57.831Z,98.33
2019-01-11T14:34:38.362Z,98.05
2019-01-11T14:35:18.889Z,97.67
2019-01-11T14:35:59.408Z,98.05
2019-01-11T14:36:39.926Z,97.67
2019-01-11T14:37:20.448Z,97.67
2019-01-11T14:38:01.011Z,97.49
2019-01-11T14:38:41.535Z,98.14
2019-01-11T14:39:22.058Z,98.43
2019-01-11T14:40:02.579Z,98.14
2019-01-11T14:40:43.144Z,99
2019-01-11T14:41:23.683Z,98.71
2019-01-11T14:42:04.214Z,99
2019-01-11T14:42:44.763Z,98.52
2019-01-11T14:43:25.281Z,99
2019-01-11T14:44:05.803Z,98.81
2019-01-11T14:44:46.326Z,98.81
2019-01-11T14:45:26.874Z,99.19
2019-01-11T14:46:07.406Z,98.9
2019-01-11T14:46:47.969Z,98.62
2019-01-11T14:47:28.585Z,99.38
2019-01-11T14:48:09.319Z,98.81
2019-01-11T14:48:50.211Z,99.19
2019-01-11T14:49:31.210Z,98.66
2019-01-11T14:50:12.333Z,99.14
2019-01-11T14:50:53.539Z,98.95
2019-01-11T14:51:34.431Z,98.95
2019-01-11T14:52:20.237Z,99.04
2019-01-11T14:52:56.997Z,99.33
2019-01-11T14:53:37.602Z,98.57
2019-01-11T14:54:18.211Z,99.42
2019-01-11T14:54:58.843Z,99.33
2019-01-11T14:55:39.372Z,99.33
2019-01-11T14:56:20.005Z,99.42
2019-01-11T14:57:00.698Z,99.52
2019-01-11T14:57:41.238Z,99.99
2019-01-11T14:58:21.765Z,99.85
2019-01-11T14:59:02.292Z,99.52
2019-01-11T14:59:42.818Z,99.76
2019-01-11T15:00:23.342Z,99.76
2019-01-11T15:01:03.856Z,99.85
2019-01-11T15:01:44.377Z,99.89
2019-01-11T15:02:24.897Z,99.99
2019-01-11T15:03:05.422Z,99.8
2019-01-11T15:03:45.938Z,99.33
2019-01-11T15:04:26.457Z,98.85
2019-01-11T15:05:06.997Z,99.23
2019-01-11T15:05:47.512Z,99.33
2019-01-11T15:06:28.034Z,99.33
2019-01-11T15:07:08.813Z,98.85
2019-01-11T15:07:49.344Z,99.23
2019-01-11T15:08:29.857Z,99.14
2019-01-11T15:09:10.385Z,99.8
2019-01-11T15:09:50.900Z,99.52
2019-01-11T15:10:31.429Z,99.99
2019-01-11T15:11:13.151Z,99.99
2019-01-11T15:11:52.472Z,99.99
2019-01-11T15:12:32.990Z,99.99
2019-01-11T15:13:13.513Z,99.99
2019-01-11T15:13:54.036Z,99.99
2019-01-11T15:14:34.558Z,99.99
2019-01-11T15:15:15.080Z,99.99
2019-01-11T15:15:55.602Z,99.99
2019-01-11T15:16:36.118Z,99.99
2019-01-11T15:17:16.642Z,99.99
2019-01-11T15:17:57.162Z,99.99
2019-01-11T15:18:37.693Z,99.99
2019-01-11T15:19:18.213Z,99.99
2019-01-11T15:19:58.734Z,99.99
2019-01-11T15:20:39.255Z,99.99
2019-01-11T15:21:19.779Z,99.99
2019-01-11T15:22:00.293Z,99.99
2019-01-11T15:22:40.814Z,99.99
2019-01-11T15:23:21.333Z,99.99
2019-01-11T15:24:01.853Z,99.99
2019-01-11T15:24:42.377Z,99.99
2019-01-11T15:25:22.896Z,99.99
2019-01-11T15:26:03.437Z,99.99
2019-01-11T15:26:43.955Z,99.99
2019-01-11T15:27:24.474Z,99.99
2019-01-11T15:28:05.001Z,99.99